createdAt,value
2016-08-23T14:43:56.763Z,1021.59
2016-08-23T14:44:56.939Z,1021.58
2016-08-23T14:45:56.684Z,1021.65
2016-08-23T14:46:56.646Z,1021.62
2016-08-23T14:47:56.607Z,1021.59
2016-08-23T14:48:56.567Z,1021.61
2016-08-23T14:49:56.545Z,1021.59
2016-08-23T14:50:56.514Z,1021.58
2016-08-23T14:51:56.451Z,1021.61
2016-08-23T14:52:56.601Z,1021.56
2016-08-23T14:53:56.573Z,1021.56
2016-08-23T14:54:56.327Z,1021.56
2016-08-23T14:55:56.303Z,1021.59
2016-08-23T14:56:56.253Z,1021.57
2016-08-23T14:57:56.215Z,1021.6
2016-08-23T14:58:56.185Z,1021.56
2016-08-23T14:59:56.141Z,1021.57
2016-08-23T15:00:56.576Z,1021.56
2016-08-23T15:01:56.068Z,1021.57
2016-08-23T15:02:56.021Z,1021.54
2016-08-23T15:03:56.187Z,1021.55
2016-08-23T15:04:55.946Z,1021.52
2016-08-23T15:05:55.916Z,1021.56
2016-08-23T15:06:55.876Z,1021.5
2016-08-23T15:07:55.826Z,1021.5
2016-08-23T15:08:55.804Z,1021.48
2016-08-23T15:09:55.765Z,1021.48
2016-08-23T15:10:55.727Z,1021.43
2016-08-23T15:11:55.682Z,1021.43
2016-08-23T15:12:55.645Z,1021.42
2016-08-23T15:13:55.605Z,1021.4
2016-08-23T15:14:55.563Z,1021.4
2016-08-23T15:15:55.720Z,1021.4
2016-08-23T15:16:55.494Z,1021.38
2016-08-23T15:17:55.654Z,1021.37
2016-08-23T15:18:55.417Z,1021.4
2016-08-23T15:19:55.376Z,1021.35
2016-08-23T15:20:55.331Z,1021.36
2016-08-23T15:21:56.691Z,1021.36
2016-08-23T15:22:55.262Z,1021.37
2016-08-23T15:23:55.226Z,1021.36
2016-08-23T15:24:55.371Z,1021.34
2016-08-23T15:25:55.136Z,1021.37
2016-08-23T15:26:55.299Z,1021.34
2016-08-23T15:27:55.287Z,1021.37
2016-08-23T15:28:55.025Z,1021.37
2016-08-23T15:29:54.996Z,1021.37
2016-08-23T15:30:55.025Z,1021.37
2016-08-23T15:31:54.914Z,1021.38
2016-08-23T15:32:54.887Z,1021.37
2016-08-23T15:33:55.034Z,1021.31
2016-08-23T15:34:55.000Z,1021.27
2016-08-23T15:35:54.958Z,1021.32
2016-08-23T15:36:54.922Z,1021.33
2016-08-23T15:37:54.682Z,1021.3
2016-08-23T15:38:54.655Z,1021.31
2016-08-23T15:39:54.614Z,1021.3
2016-08-23T15:40:54.577Z,1021.28
2016-08-23T15:41:54.537Z,1021.29
2016-08-23T15:42:54.718Z,1021.34
2016-08-23T15:43:54.664Z,1021.35
2016-08-23T15:44:54.414Z,1021.29
2016-08-23T15:45:54.585Z,1021.27
2016-08-23T15:46:54.339Z,1021.25
2016-08-23T15:47:54.300Z,1021.29
2016-08-23T15:48:54.266Z,1021.3
2016-08-23T15:49:54.223Z,1021.26
2016-08-23T15:50:54.198Z,1021.3
2016-08-23T15:51:54.353Z,1021.3
2016-08-23T15:52:54.329Z,1021.3
2016-08-23T15:53:54.075Z,1021.27
2016-08-23T15:54:54.227Z,1021.26
2016-08-23T15:55:54.199Z,1021.29
2016-08-23T15:56:53.959Z,1021.25
2016-08-23T15:57:53.928Z,1021.24
2016-08-23T15:58:53.887Z,1021.23
2016-08-23T15:59:53.846Z,1021.24
2016-08-23T16:00:54.009Z,1021.22
2016-08-23T16:01:53.982Z,1021.21
2016-08-23T16:02:54.534Z,1021.22
2016-08-23T16:03:53.693Z,1021.23
2016-08-23T16:04:53.666Z,1021.19
2016-08-23T16:05:53.627Z,1021.23
2016-08-23T16:06:53.791Z,1021.24
2016-08-23T16:07:53.555Z,1021.2
2016-08-23T16:08:53.517Z,1021.22
2016-08-23T16:09:53.484Z,1021.2
2016-08-23T16:10:53.466Z,1021.15
2016-08-23T16:11:53.453Z,1021.16
2016-08-23T16:12:53.371Z,1021.14
2016-08-23T16:13:53.332Z,1021.13
2016-08-23T16:14:53.299Z,1021.11
2016-08-23T16:15:53.260Z,1021.12
2016-08-23T16:16:53.239Z,1021.11
2016-08-23T16:17:53.197Z,1021.1
2016-08-23T16:18:53.150Z,1021.07
2016-08-23T16:19:53.115Z,1021.05
2016-08-23T16:20:53.084Z,1021.08
2016-08-23T16:21:53.244Z,1021.06
2016-08-23T16:22:53.005Z,1021.07
2016-08-23T16:23:52.973Z,1021.06
2016-08-23T16:24:52.956Z,1021.04
2016-08-23T16:25:53.112Z,1021.01
2016-08-23T16:26:52.951Z,1021.03
2016-08-23T16:27:52.827Z,1020.99
2016-08-23T16:28:52.785Z,1021.05
2016-08-23T16:29:52.757Z,1021
2016-08-23T16:30:52.710Z,1021.03
2016-08-23T16:31:52.674Z,1021.02
2016-08-23T16:32:52.664Z,1021.06
2016-08-23T16:33:52.593Z,1021.02
2016-08-23T16:34:52.566Z,1021.01
2016-08-23T16:35:52.714Z,1020.99
2016-08-23T16:36:52.489Z,1021.02
2016-08-23T16:37:52.442Z,1021
2016-08-23T16:38:52.408Z,1021
2016-08-23T16:39:52.370Z,1021.05
2016-08-23T16:40:52.327Z,1021.04
2016-08-23T16:41:52.298Z,1021.01
2016-08-23T16:42:52.271Z,1020.99
2016-08-23T16:43:52.211Z,1020.98
2016-08-23T16:44:52.374Z,1020.95
2016-08-23T16:45:52.136Z,1020.95
2016-08-23T16:46:52.098Z,1020.93
2016-08-23T16:47:52.070Z,1020.91
2016-08-23T16:48:52.019Z,1020.92
2016-08-23T16:49:51.980Z,1020.88
2016-08-23T16:50:51.944Z,1020.91
2016-08-23T16:51:51.911Z,1020.86
2016-08-23T16:52:51.870Z,1020.85
2016-08-23T16:53:51.822Z,1020.89
2016-08-23T16:54:51.780Z,1020.86
2016-08-23T16:55:51.740Z,1020.84
2016-08-23T16:56:51.704Z,1020.88
2016-08-23T16:57:51.669Z,1020.85
2016-08-23T16:58:51.630Z,1020.82
2016-08-23T16:59:51.786Z,1020.84
2016-08-23T17:00:51.557Z,1020.82
2016-08-23T17:01:51.507Z,1020.8
2016-08-23T17:02:51.470Z,1020.82
2016-08-23T17:03:51.428Z,1020.78
2016-08-23T17:04:51.397Z,1020.8
2016-08-23T17:05:51.359Z,1020.78
2016-08-23T17:06:51.311Z,1020.78
2016-08-23T17:07:51.484Z,1020.8
2016-08-23T17:08:51.233Z,1020.77
2016-08-23T17:09:51.198Z,1020.77
2016-08-23T17:10:51.153Z,1020.78
2016-08-23T17:11:51.113Z,1020.75
2016-08-23T17:12:51.271Z,1020.75
2016-08-23T17:13:51.035Z,1020.74
2016-08-23T17:14:51.028Z,1020.7
2016-08-23T17:15:51.155Z,1020.72
2016-08-23T17:16:50.915Z,1020.7
2016-08-23T17:17:50.879Z,1020.69
2016-08-23T17:18:50.833Z,1020.7
2016-08-23T17:19:50.795Z,1020.67
2016-08-23T17:20:50.764Z,1020.64
2016-08-23T17:21:50.714Z,1020.64
2016-08-23T17:22:50.676Z,1020.62
2016-08-23T17:23:50.641Z,1020.61
2016-08-23T17:24:50.594Z,1020.6
2016-08-23T17:25:50.589Z,1020.62
2016-08-23T17:26:50.519Z,1020.64
2016-08-23T17:27:50.477Z,1020.58
2016-08-23T17:28:50.438Z,1020.6
2016-08-23T17:29:50.597Z,1020.62
2016-08-23T17:30:50.562Z,1020.6
2016-08-23T17:31:50.314Z,1020.6
2016-08-23T17:32:50.274Z,1020.57
2016-08-23T17:33:50.236Z,1020.58
2016-08-23T17:34:50.191Z,1020.56
2016-08-23T17:35:50.155Z,1020.57
2016-08-23T17:36:50.128Z,1020.53
2016-08-23T17:37:50.074Z,1020.57
2016-08-23T17:38:50.033Z,1020.54
2016-08-23T17:39:50.004Z,1020.57
2016-08-23T17:40:49.954Z,1020.56
2016-08-23T17:41:49.913Z,1020.58
2016-08-23T17:42:49.875Z,1020.56
2016-08-23T17:43:49.833Z,1020.56
2016-08-23T17:44:49.792Z,1020.57
2016-08-23T17:45:49.751Z,1020.55
2016-08-23T17:46:49.714Z,1020.56
2016-08-23T17:47:49.677Z,1020.59
2016-08-23T17:48:49.635Z,1020.55
2016-08-23T17:49:49.799Z,1020.57
2016-08-23T17:50:49.752Z,1020.58
2016-08-23T17:51:49.521Z,1020.56
2016-08-23T17:52:49.477Z,1020.58
2016-08-23T17:53:49.430Z,1020.61
2016-08-23T17:54:49.390Z,1020.59
2016-08-23T17:55:49.353Z,1020.62
2016-08-23T17:56:49.317Z,1020.62
2016-08-23T17:57:49.276Z,1020.61
2016-08-23T17:58:49.244Z,1020.67
2016-08-23T17:59:49.193Z,1020.67
2016-08-23T18:00:49.155Z,1020.69
2016-08-23T18:01:49.121Z,1020.7
2016-08-23T18:02:49.073Z,1020.68
2016-08-23T18:03:49.037Z,1020.71
2016-08-23T18:04:49.595Z,1020.74
2016-08-23T18:05:48.949Z,1020.77
2016-08-23T18:06:48.905Z,1020.74
2016-08-23T18:07:48.865Z,1020.74
2016-08-23T18:08:50.023Z,1020.75
2016-08-23T18:09:48.783Z,1020.73
2016-08-23T18:10:48.743Z,1020.76
2016-08-23T18:11:48.706Z,1020.78
2016-08-23T18:12:48.665Z,1020.74
2016-08-23T18:13:49.032Z,1020.74
2016-08-23T18:14:48.579Z,1020.75
2016-08-23T18:15:48.580Z,1020.77
2016-08-23T18:16:48.509Z,1020.8
2016-08-23T18:17:48.457Z,1020.79
2016-08-23T18:18:48.418Z,1020.77
2016-08-23T18:19:48.371Z,1020.78
2016-08-23T18:20:48.341Z,1020.83
2016-08-23T18:21:48.298Z,1020.8
2016-08-23T18:22:48.273Z,1020.83
2016-08-23T18:23:48.227Z,1020.77
2016-08-23T18:24:48.173Z,1020.78
2016-08-23T18:25:48.136Z,1020.75
2016-08-23T18:26:48.097Z,1020.75
2016-08-23T18:27:48.254Z,1020.77
2016-08-23T18:28:48.014Z,1020.74
2016-08-23T18:29:47.967Z,1020.74
2016-08-23T18:30:47.934Z,1020.74
2016-08-23T18:31:48.102Z,1020.74
2016-08-23T18:32:47.854Z,1020.74
2016-08-23T18:33:47.808Z,1020.78
2016-08-23T18:34:47.762Z,1020.77
2016-08-23T18:35:47.725Z,1020.78
2016-08-23T18:36:47.685Z,1020.76
2016-08-23T18:37:47.651Z,1020.86
2016-08-23T18:38:47.608Z,1020.86
2016-08-23T18:39:47.564Z,1020.84
2016-08-23T18:40:47.534Z,1020.84
2016-08-23T18:41:47.688Z,1020.82
2016-08-23T18:42:47.440Z,1020.82
2016-08-23T18:43:47.401Z,1020.83
2016-08-23T18:44:47.365Z,1020.82
2016-08-23T18:45:47.316Z,1020.86
2016-08-23T18:46:47.284Z,1020.86
2016-08-23T18:47:47.234Z,1020.87
2016-08-23T18:48:47.210Z,1020.82
2016-08-23T18:49:47.166Z,1020.9
2016-08-23T18:50:47.127Z,1020.84
2016-08-23T18:51:47.069Z,1020.87
2016-08-23T18:52:47.042Z,1020.86
2016-08-23T18:53:46.991Z,1020.84
2016-08-23T18:54:46.948Z,1020.85
2016-08-23T18:55:46.913Z,1020.83
2016-08-23T18:56:46.871Z,1020.86
2016-08-23T18:57:46.849Z,1020.84
2016-08-23T18:58:46.791Z,1020.86
2016-08-23T18:59:46.767Z,1020.82
2016-08-23T19:00:46.708Z,1020.85
2016-08-23T19:01:46.692Z,1020.87
2016-08-23T19:02:46.835Z,1020.89
2016-08-23T19:03:46.595Z,1020.87
2016-08-23T19:04:46.568Z,1020.86
2016-08-23T19:05:46.502Z,1020.9
2016-08-23T19:06:46.458Z,1020.89
2016-08-23T19:07:46.419Z,1020.88
2016-08-23T19:08:46.375Z,1020.87
2016-08-23T19:09:46.332Z,1020.91
2016-08-23T19:10:46.302Z,1020.89
2016-08-23T19:11:46.249Z,1020.87
2016-08-23T19:12:46.216Z,1020.9
2016-08-23T19:13:46.167Z,1020.9
2016-08-23T19:14:46.124Z,1020.89
2016-08-23T19:15:46.090Z,1020.92
2016-08-23T19:16:46.047Z,1020.9
2016-08-23T19:17:46.007Z,1020.89
2016-08-23T19:18:45.974Z,1020.88
2016-08-23T19:19:45.923Z,1020.88
2016-08-23T19:20:45.875Z,1020.91
2016-08-23T19:21:45.834Z,1020.88
2016-08-23T19:22:45.797Z,1020.9
2016-08-23T19:23:45.751Z,1020.87
2016-08-23T19:24:45.713Z,1020.86
2016-08-23T19:25:45.671Z,1020.86
2016-08-23T19:26:45.629Z,1020.82
2016-08-23T19:27:45.586Z,1020.83
2016-08-23T19:28:45.549Z,1020.82
2016-08-23T19:29:45.506Z,1020.81
2016-08-23T19:30:45.467Z,1020.8
2016-08-23T19:31:45.425Z,1020.8
2016-08-23T19:32:45.392Z,1020.82
2016-08-23T19:33:45.348Z,1020.82
2016-08-23T19:34:45.323Z,1020.81
2016-08-23T19:35:45.258Z,1020.83
2016-08-23T19:36:45.226Z,1020.82
2016-08-23T19:37:45.174Z,1020.82
2016-08-23T19:38:45.332Z,1020.83
2016-08-23T19:39:45.116Z,1020.84
2016-08-23T19:40:45.050Z,1020.86
2016-08-23T19:41:45.013Z,1020.84
2016-08-23T19:42:44.971Z,1020.86
2016-08-23T19:43:44.926Z,1020.84
2016-08-23T19:44:44.921Z,1020.88
2016-08-23T19:45:44.842Z,1020.83
2016-08-23T19:46:44.805Z,1020.83
2016-08-23T19:47:44.759Z,1020.85
2016-08-23T19:48:44.725Z,1020.83
2016-08-23T19:49:44.685Z,1020.84
2016-08-23T19:50:44.649Z,1020.85
2016-08-23T19:51:44.590Z,1020.83
2016-08-23T19:52:44.562Z,1020.85
2016-08-23T19:53:44.530Z,1020.84
2016-08-23T19:54:44.477Z,1020.86
2016-08-23T19:55:44.433Z,1020.81
2016-08-23T19:56:44.434Z,1020.84
2016-08-23T19:57:44.426Z,1020.82
2016-08-23T19:58:44.305Z,1020.87
2016-08-23T19:59:44.279Z,1020.86
2016-08-23T20:00:44.231Z,1020.85
2016-08-23T20:01:44.183Z,1020.82
2016-08-23T20:02:44.133Z,1020.86
2016-08-23T20:03:44.116Z,1020.85
2016-08-23T20:04:44.058Z,1020.86
2016-08-23T20:05:44.010Z,1020.85
2016-08-23T20:06:43.987Z,1020.88
2016-08-23T20:07:43.931Z,1020.84
2016-08-23T20:08:43.925Z,1020.87
2016-08-23T20:09:43.847Z,1020.83
2016-08-23T20:10:43.804Z,1020.85
2016-08-23T20:11:43.755Z,1020.82
2016-08-23T20:12:43.718Z,1020.81
2016-08-23T20:13:43.675Z,1020.81
2016-08-23T20:14:43.656Z,1020.83
2016-08-23T20:15:43.625Z,1020.8
2016-08-23T20:16:43.567Z,1020.76
2016-08-23T20:17:43.504Z,1020.79
2016-08-23T20:18:43.487Z,1020.79
2016-08-23T20:19:43.426Z,1020.78
2016-08-23T20:20:43.397Z,1020.84
2016-08-23T20:21:43.344Z,1020.79
2016-08-23T20:22:43.293Z,1020.76
2016-08-23T20:23:43.261Z,1020.81
2016-08-23T20:24:43.214Z,1020.75
2016-08-23T20:25:43.169Z,1020.76
2016-08-23T20:26:43.132Z,1020.73
2016-08-23T20:27:43.284Z,1020.73
2016-08-23T20:28:43.044Z,1020.74
2016-08-23T20:29:43.011Z,1020.74
2016-08-23T20:30:42.958Z,1020.74
2016-08-23T20:31:42.931Z,1020.72
2016-08-23T20:32:42.877Z,1020.75
2016-08-23T20:33:42.851Z,1020.73
2016-08-23T20:34:42.802Z,1020.7
2016-08-23T20:35:42.755Z,1020.7
2016-08-23T20:36:42.707Z,1020.68
2016-08-23T20:37:42.669Z,1020.69
2016-08-23T20:38:42.640Z,1020.66
2016-08-23T20:39:42.781Z,1020.65
2016-08-23T20:40:42.542Z,1020.69
2016-08-23T20:41:42.494Z,1020.68
2016-08-23T20:42:42.455Z,1020.68
2016-08-23T20:43:42.415Z,1020.68
2016-08-23T20:44:42.365Z,1020.7
2016-08-23T20:45:42.334Z,1020.69
2016-08-23T20:46:42.294Z,1020.69
2016-08-23T20:47:42.240Z,1020.68
2016-08-23T20:48:42.200Z,1020.63
2016-08-23T20:49:42.161Z,1020.64
2016-08-23T20:50:42.113Z,1020.6
2016-08-23T20:51:42.073Z,1020.64
2016-08-23T20:52:42.033Z,1020.62
2016-08-23T20:53:41.985Z,1020.62
2016-08-23T20:54:41.946Z,1020.65
2016-08-23T20:55:41.906Z,1020.65
2016-08-23T20:56:41.858Z,1020.58
2016-08-23T20:57:42.020Z,1020.63
2016-08-23T20:58:41.779Z,1020.61
2016-08-23T20:59:41.735Z,1020.62
2016-08-23T21:00:41.694Z,1020.58
2016-08-23T21:01:41.856Z,1020.61
2016-08-23T21:02:41.606Z,1020.62
2016-08-23T21:03:41.563Z,1020.64
2016-08-23T21:04:41.530Z,1020.62
2016-08-23T21:05:41.481Z,1020.62
2016-08-23T21:06:41.441Z,1020.6
2016-08-23T21:07:41.405Z,1020.6
2016-08-23T21:08:41.351Z,1020.59
2016-08-23T21:09:41.311Z,1020.6
2016-08-23T21:10:41.269Z,1020.6
2016-08-23T21:11:41.223Z,1020.58
2016-08-23T21:12:41.187Z,1020.61
2016-08-23T21:13:41.146Z,1020.58
2016-08-23T21:14:41.102Z,1020.58
2016-08-23T21:15:41.061Z,1020.57
2016-08-23T21:16:41.015Z,1020.59
2016-08-23T21:17:40.966Z,1020.58
2016-08-23T21:18:40.931Z,1020.58
2016-08-23T21:19:40.884Z,1020.57
2016-08-23T21:20:40.841Z,1020.56
2016-08-23T21:21:40.816Z,1020.56
2016-08-23T21:22:40.764Z,1020.53
2016-08-23T21:23:40.923Z,1020.54
2016-08-23T21:24:40.681Z,1020.54
2016-08-23T21:25:40.633Z,1020.58
2016-08-23T21:26:40.596Z,1020.57
2016-08-23T21:27:40.550Z,1020.58
2016-08-23T21:28:40.507Z,1020.58
2016-08-23T21:29:40.460Z,1020.53
2016-08-23T21:30:40.424Z,1020.53
2016-08-23T21:31:40.584Z,1020.56
2016-08-23T21:32:40.334Z,1020.58
2016-08-23T21:33:40.290Z,1020.55
2016-08-23T21:34:40.251Z,1020.56
2016-08-23T21:35:40.205Z,1020.5
2016-08-23T21:36:40.162Z,1020.53
2016-08-23T21:37:40.319Z,1020.58
2016-08-23T21:38:40.077Z,1020.51
2016-08-23T21:39:40.032Z,1020.55
2016-08-23T21:40:39.991Z,1020.52
2016-08-23T21:41:40.158Z,1020.53
2016-08-23T21:42:39.904Z,1020.51
2016-08-23T21:43:39.862Z,1020.51
2016-08-23T21:44:39.820Z,1020.47
2016-08-23T21:45:39.780Z,1020.51
2016-08-23T21:46:39.741Z,1020.47
2016-08-23T21:47:39.904Z,1020.53
2016-08-23T21:48:39.652Z,1020.5
2016-08-23T21:49:39.611Z,1020.49
2016-08-23T21:50:39.561Z,1020.53
2016-08-23T21:51:39.519Z,1020.52
2016-08-23T21:52:39.493Z,1020.53
2016-08-23T21:53:39.437Z,1020.49
2016-08-23T21:54:39.390Z,1020.56
2016-08-23T21:55:39.349Z,1020.53
2016-08-23T21:56:39.306Z,1020.53
2016-08-23T21:57:39.263Z,1020.53
2016-08-23T21:58:39.222Z,1020.54
2016-08-23T21:59:39.179Z,1020.56
2016-08-23T22:00:39.146Z,1020.56
2016-08-23T22:01:39.101Z,1020.57
2016-08-23T22:02:39.052Z,1020.57
2016-08-23T22:03:39.009Z,1020.56
2016-08-23T22:04:38.967Z,1020.54
2016-08-23T22:05:38.918Z,1020.57
2016-08-23T22:06:38.880Z,1020.57
2016-08-23T22:07:38.839Z,1020.58
2016-08-23T22:08:38.791Z,1020.55
2016-08-23T22:09:38.752Z,1020.53
2016-08-23T22:10:38.703Z,1020.54
2016-08-23T22:11:38.666Z,1020.55
2016-08-23T22:12:38.623Z,1020.49
2016-08-23T22:13:38.577Z,1020.55
2016-08-23T22:14:38.532Z,1020.5
2016-08-23T22:15:38.492Z,1020.51
2016-08-23T22:16:38.453Z,1020.48
2016-08-23T22:17:38.402Z,1020.48
2016-08-23T22:18:38.363Z,1020.51
2016-08-23T22:19:38.335Z,1020.44
2016-08-23T22:20:38.275Z,1020.48
2016-08-23T22:21:38.233Z,1020.49
2016-08-23T22:22:38.392Z,1020.48
2016-08-23T22:23:38.142Z,1020.5
2016-08-23T22:24:38.103Z,1020.48
2016-08-23T22:25:38.063Z,1020.49
2016-08-23T22:26:38.223Z,1020.46
2016-08-23T22:27:37.973Z,1020.45
2016-08-23T22:28:37.929Z,1020.44
2016-08-23T22:29:37.885Z,1020.43
2016-08-23T22:30:37.843Z,1020.5
2016-08-23T22:31:37.803Z,1020.47
2016-08-23T22:32:37.960Z,1020.43
2016-08-23T22:33:37.917Z,1020.46
2016-08-23T22:34:37.672Z,1020.39
2016-08-23T22:35:37.633Z,1020.4
2016-08-23T22:36:37.586Z,1020.4
2016-08-23T22:37:37.544Z,1020.38
2016-08-23T22:38:37.498Z,1020.41
2016-08-23T22:39:37.457Z,1020.38
2016-08-23T22:40:37.414Z,1020.4
2016-08-23T22:41:37.370Z,1020.4
2016-08-23T22:42:37.333Z,1020.4
2016-08-23T22:43:37.293Z,1020.39
2016-08-23T22:44:37.243Z,1020.41
2016-08-23T22:45:37.203Z,1020.36
2016-08-23T22:46:37.154Z,1020.34
2016-08-23T22:47:37.113Z,1020.32
2016-08-23T22:48:37.067Z,1020.34
2016-08-23T22:49:37.228Z,1020.34
2016-08-23T22:50:36.983Z,1020.33
2016-08-23T22:51:36.938Z,1020.32
2016-08-23T22:52:36.892Z,1020.34
2016-08-23T22:53:36.858Z,1020.34
2016-08-23T22:54:36.810Z,1020.29
2016-08-23T22:55:36.766Z,1020.3
2016-08-23T22:56:36.725Z,1020.36
2016-08-23T22:57:36.683Z,1020.37
2016-08-23T22:58:36.634Z,1020.42
2016-08-23T22:59:36.592Z,1020.42
2016-08-23T23:00:36.550Z,1020.47
2016-08-23T23:01:36.513Z,1020.49
2016-08-23T23:02:36.466Z,1020.49
2016-08-23T23:03:36.422Z,1020.49
2016-08-23T23:04:36.416Z,1020.47
2016-08-23T23:05:36.335Z,1020.44
2016-08-23T23:06:36.288Z,1020.43
2016-08-23T23:07:36.244Z,1020.42
2016-08-23T23:08:36.202Z,1020.45
2016-08-23T23:09:36.157Z,1020.42
2016-08-23T23:10:36.114Z,1020.44
2016-08-23T23:11:36.073Z,1020.4
2016-08-23T23:12:36.234Z,1020.39
2016-08-23T23:13:35.987Z,1020.36
2016-08-23T23:14:35.941Z,1020.35
2016-08-23T23:15:35.900Z,1020.34
2016-08-23T23:16:36.061Z,1020.34
2016-08-23T23:17:35.812Z,1020.33
2016-08-23T23:18:35.767Z,1020.34
2016-08-23T23:19:35.724Z,1020.35
2016-08-23T23:20:35.679Z,1020.36
2016-08-23T23:21:35.637Z,1020.36
2016-08-23T23:22:35.593Z,1020.31
2016-08-23T23:23:35.550Z,1020.32
2016-08-23T23:24:35.506Z,1020.32
2016-08-23T23:25:35.466Z,1020.31
2016-08-23T23:26:35.422Z,1020.3
2016-08-23T23:27:35.376Z,1020.3
2016-08-23T23:28:35.332Z,1020.31
2016-08-23T23:29:35.291Z,1020.32
2016-08-23T23:30:35.250Z,1020.33
2016-08-23T23:31:35.202Z,1020.3
2016-08-23T23:32:35.162Z,1020.26
2016-08-23T23:33:35.122Z,1020.27
2016-08-23T23:34:35.072Z,1020.27
2016-08-23T23:35:35.033Z,1020.29
2016-08-23T23:36:34.982Z,1020.25
2016-08-23T23:37:34.941Z,1020.26
2016-08-23T23:38:34.909Z,1020.24
2016-08-23T23:39:34.853Z,1020.29
2016-08-23T23:40:34.814Z,1020.24
2016-08-23T23:41:34.773Z,1020.24
2016-08-23T23:42:34.726Z,1020.23
2016-08-23T23:43:34.683Z,1020.19
2016-08-23T23:44:34.841Z,1020.21
2016-08-23T23:45:34.600Z,1020.21
2016-08-23T23:46:34.554Z,1020.17
2016-08-23T23:47:34.503Z,1020.16
2016-08-23T23:48:34.471Z,1020.16
2016-08-23T23:49:34.419Z,1020.16
2016-08-23T23:50:34.384Z,1020.14
2016-08-23T23:51:34.329Z,1020.15
2016-08-23T23:52:34.288Z,1020.11
2016-08-23T23:53:34.447Z,1020.09
2016-08-23T23:54:34.198Z,1020.1
2016-08-23T23:55:34.154Z,1020.06
2016-08-23T23:56:34.313Z,1020.05
2016-08-23T23:57:34.069Z,1020.06
2016-08-23T23:58:34.022Z,1020.03
2016-08-23T23:59:33.983Z,1020.07
